Time;durP1;ratioP1;P1;durP2;ratioP2;P2;SDS_P1;SDS_P2;PMS_P1;PMS_P2;Temp;Humidity;BMP_temperature;BMP_pressure;BME280_temperature;BME280_humidity;BME280_pressure;Samples;Min_cycle;Max_cycle;Signal;HPM_P1;HPM_P2
2021/12/16 00:01:45;;;;;;;;;;;3.10;99.90;;;;;;6072083;23;19926;-86
2021/12/16 00:08:50;;;;;;;;;;;3.00;99.90;;;;;;6047978;23;19929;-86
2021/12/16 00:33:42;;;;;;;;;;;3.00;99.90;;;;;;6016885;23;19925;-86
2021/12/16 00:36:06;;;;;;;;;;;3.00;99.90;;;;;;6016229;23;19925;-86
2021/12/16 00:38:36;;;;;;;;;;;3.00;99.90;;;;;;6014842;23;19922;-86
2021/12/16 00:41:04;;;;;;;;;;;3.00;99.90;;;;;;6004729;23;19925;-87
2021/12/16 00:43:43;;;;;;;;;;;3.10;99.90;;;;;;6015576;23;19926;-86
2021/12/16 00:46:18;;;;;;;;;;;3.10;99.90;;;;;;6048992;23;19925;-86
2021/12/16 00:54:11;;;;;;;;;;;3.10;99.90;;;;;;6063859;23;19926;-86
2021/12/16 00:56:41;;;;;;;;;;;3.10;99.90;;;;;;6023143;23;20211;-86
2021/12/16 00:59:11;;;;;;;;;;;3.00;99.90;;;;;;6044335;23;19929;-86
2021/12/16 01:01:53;;;;;;;;;;;3.00;99.90;;;;;;5987831;23;20386;-86
2021/12/16 01:07:46;;;;;;;;;;;3.00;99.90;;;;;;6038944;23;19952;-86
2021/12/16 01:51:52;;;;;;;;;;;2.90;99.90;;;;;;6014733;23;20588;-86
2021/12/16 01:54:48;;;;;;;;;;;2.80;99.90;;;;;;6015591;23;19960;-86
2021/12/16 01:59:58;;;;;;;;;;;2.80;99.90;;;;;;6041692;23;19929;-86
2021/12/16 02:02:42;;;;;;;;;;;2.80;99.90;;;;;;6046824;23;19922;-86
2021/12/16 02:10:39;;;;;;;;;;;2.90;99.90;;;;;;6038477;23;20325;-86
2021/12/16 02:37:58;;;;;;;;;;;2.80;99.90;;;;;;6015755;23;19921;-84
2021/12/16 02:40:27;;;;;;;;;;;2.80;99.90;;;;;;6014938;23;19921;-84
2021/12/16 02:48:32;;;;;;;;;;;2.80;99.90;;;;;;6040904;23;19933;-84
2021/12/16 02:51:03;;;;;;;;;;;2.70;99.90;;;;;;6040033;23;19926;-84
2021/12/16 02:53:31;;;;;;;;;;;2.70;99.90;;;;;;6050711;23;19926;-84
2021/12/16 02:55:59;;;;;;;;;;;2.70;99.90;;;;;;6017045;23;19922;-84
2021/12/16 02:58:27;;;;;;;;;;;2.60;99.90;;;;;;6037680;23;19922;-84
2021/12/16 03:00:58;;;;;;;;;;;2.60;99.90;;;;;;6017159;23;19926;-84
2021/12/16 03:03:26;;;;;;;;;;;2.60;99.90;;;;;;5992615;23;19929;-84
2021/12/16 03:05:54;;;;;;;;;;;2.60;99.90;;;;;;6017820;23;19930;-84
2021/12/16 03:08:21;;;;;;;;;;;2.60;99.90;;;;;;6016365;23;19932;-84
2021/12/16 03:11:39;;;;;;;;;;;2.60;99.90;;;;;;6072465;23;19921;-84
2021/12/16 03:13:50;;;;;;;;;;;2.60;99.90;;;;;;6005923;23;19926;-84
2021/12/16 03:16:30;;;;;;;;;;;2.50;99.90;;;;;;6014829;23;19929;-84
2021/12/16 03:19:24;;;;;;;;;;;2.50;99.90;;;;;;6014806;23;19930;-84
2021/12/16 03:21:56;;;;;;;;;;;2.50;99.90;;;;;;6048000;23;19926;-83
2021/12/16 03:35:27;;;;;;;;;;;2.40;99.90;;;;;;6014557;23;19926;-84
2021/12/16 03:38:04;;;;;;;;;;;2.40;99.90;;;;;;6038949;23;19930;-84
2021/12/16 03:40:35;;;;;;;;;;;2.40;99.90;;;;;;6013374;23;19922;-84
2021/12/16 03:43:09;;;;;;;;;;;2.40;99.90;;;;;;6065900;23;19942;-83
2021/12/16 03:48:30;;;;;;;;;;;2.40;99.90;;;;;;6038426;23;19933;-83
2021/12/16 03:50:58;;;;;;;;;;;2.40;99.90;;;;;;6043358;23;20245;-84
2021/12/16 03:53:28;;;;;;;;;;;2.40;99.90;;;;;;6047600;23;19926;-84
2021/12/16 03:55:58;;;;;;;;;;;2.40;99.90;;;;;;6038389;23;19936;-85
2021/12/16 03:58:30;;;;;;;;;;;2.40;99.90;;;;;;6013052;23;19926;-84
2021/12/16 04:01:01;;;;;;;;;;;2.40;99.90;;;;;;5990893;23;19937;-84
2021/12/16 04:03:29;;;;;;;;;;;2.40;99.90;;;;;;6014221;23;19940;-84
2021/12/16 04:05:58;;;;;;;;;;;2.40;99.90;;;;;;6048197;23;19925;-84
2021/12/16 04:08:26;;;;;;;;;;;2.40;99.90;;;;;;6031083;23;19929;-84
2021/12/16 04:11:04;;;;;;;;;;;2.40;99.90;;;;;;6043586;23;19930;-84
2021/12/16 04:13:59;;;;;;;;;;;2.40;99.90;;;;;;6046341;23;19928;-83
2021/12/16 04:16:38;;;;;;;;;;;2.40;99.90;;;;;;6014236;23;19926;-84
2021/12/16 04:19:11;;;;;;;;;;;2.40;99.90;;;;;;6016133;23;19933;-84
2021/12/16 04:21:43;;;;;;;;;;;2.40;99.90;;;;;;5993042;23;20330;-84
2021/12/16 04:24:11;;;;;;;;;;;2.40;99.90;;;;;;6016055;23;19932;-84
2021/12/16 04:26:53;;;;;;;;;;;2.40;99.90;;;;;;6047383;23;20357;-84
2021/12/16 04:30:12;;;;;;;;;;;2.40;99.90;;;;;;6017090;23;19926;-84
2021/12/16 04:33:12;;;;;;;;;;;2.30;99.90;;;;;;5971643;23;19926;-84
2021/12/16 04:35:40;;;;;;;;;;;2.30;99.90;;;;;;6043438;23;19921;-84
2021/12/16 04:38:08;;;;;;;;;;;2.40;99.90;;;;;;6016256;23;19953;-84
2021/12/16 04:40:43;;;;;;;;;;;2.30;99.90;;;;;;6048832;23;19933;-86
2021/12/16 04:43:20;;;;;;;;;;;2.30;99.90;;;;;;5991698;23;19921;-87
2021/12/16 04:46:01;;;;;;;;;;;2.40;99.90;;;;;;6053303;23;20337;-87
2021/12/16 04:48:39;;;;;;;;;;;2.30;99.90;;;;;;6039032;23;20224;-87
2021/12/16 04:51:20;;;;;;;;;;;2.40;99.90;;;;;;6015566;23;19941;-86
2021/12/16 04:53:48;;;;;;;;;;;2.30;99.90;;;;;;6049439;23;19922;-85
2021/12/16 04:56:16;;;;;;;;;;;2.30;99.90;;;;;;6017106;23;19925;-85
2021/12/16 04:58:56;;;;;;;;;;;2.30;99.90;;;;;;6044879;23;19922;-85
2021/12/16 05:01:24;;;;;;;;;;;2.30;99.90;;;;;;6049625;23;20365;-85
2021/12/16 05:03:53;;;;;;;;;;;2.30;99.90;;;;;;6041755;23;19925;-84
2021/12/16 05:06:20;;;;;;;;;;;2.30;99.90;;;;;;6015483;23;19933;-84
2021/12/16 05:08:48;;;;;;;;;;;2.30;99.90;;;;;;6016013;23;19921;-85
2021/12/16 05:11:28;;;;;;;;;;;2.30;99.90;;;;;;6043003;23;19945;-85
2021/12/16 05:13:59;;;;;;;;;;;2.30;99.90;;;;;;6048763;23;19922;-85
2021/12/16 05:16:27;;;;;;;;;;;2.30;99.90;;;;;;6015278;23;19925;-85
2021/12/16 05:18:56;;;;;;;;;;;2.30;99.90;;;;;;6021765;23;20241;-85
2021/12/16 05:21:49;;;;;;;;;;;2.30;99.90;;;;;;6015729;23;20352;-85
2021/12/16 05:24:33;;;;;;;;;;;2.30;99.90;;;;;;6015233;23;19933;-85
2021/12/16 05:27:09;;;;;;;;;;;2.30;99.90;;;;;;6067714;23;19976;-85
2021/12/16 05:29:38;;;;;;;;;;;2.30;99.90;;;;;;6049864;23;20293;-85
2021/12/16 05:32:08;;;;;;;;;;;2.30;99.90;;;;;;6040635;23;19933;-85
2021/12/16 05:34:35;;;;;;;;;;;2.30;99.90;;;;;;6047250;23;19922;-85
2021/12/16 05:37:05;;;;;;;;;;;2.30;99.90;;;;;;6074738;23;19925;-85
2021/12/16 05:39:36;;;;;;;;;;;2.30;99.90;;;;;;6042993;23;20352;-85
2021/12/16 05:42:23;;;;;;;;;;;2.30;99.90;;;;;;6063425;23;19925;-85
2021/12/16 05:44:51;;;;;;;;;;;2.20;99.90;;;;;;6049581;23;19921;-85
2021/12/16 05:47:19;;;;;;;;;;;2.20;99.90;;;;;;6043792;23;20627;-84
2021/12/16 05:49:49;;;;;;;;;;;2.20;99.90;;;;;;6015741;23;19922;-85
2021/12/16 05:52:16;;;;;;;;;;;2.20;99.90;;;;;;6039516;23;19933;-83
2021/12/16 05:54:44;;;;;;;;;;;2.20;99.90;;;;;;6022922;23;19922;-84
2021/12/16 05:57:45;;;;;;;;;;;2.20;99.90;;;;;;6031560;23;19933;-83
2021/12/16 06:00:20;;;;;;;;;;;2.20;99.90;;;;;;6039898;23;19928;-84
2021/12/16 06:02:50;;;;;;;;;;;2.20;99.90;;;;;;6045292;23;19925;-85
2021/12/16 06:05:18;;;;;;;;;;;2.10;99.90;;;;;;6049274;23;19929;-84
2021/12/16 06:07:52;;;;;;;;;;;2.20;99.90;;;;;;6014798;23;19932;-83
2021/12/16 06:13:02;;;;;;;;;;;2.20;99.90;;;;;;6073732;23;19936;-84
2021/12/16 06:27:03;;;;;;;;;;;2.10;99.90;;;;;;6071751;23;20347;-84
2021/12/16 06:29:30;;;;;;;;;;;2.00;99.90;;;;;;6074455;23;19937;-83
2021/12/16 06:31:58;;;;;;;;;;;2.20;99.90;;;;;;6065299;23;20117;-83
2021/12/16 06:34:26;;;;;;;;;;;2.20;99.90;;;;;;6038233;23;20250;-84
2021/12/16 06:36:53;;;;;;;;;;;2.20;99.90;;;;;;6015852;23;20428;-83
2021/12/16 06:39:21;;;;;;;;;;;2.20;99.90;;;;;;6042850;23;20250;-84
2021/12/16 06:42:09;;;;;;;;;;;2.20;99.90;;;;;;6061002;23;19926;-84
2021/12/16 06:44:53;;;;;;;;;;;2.10;99.90;;;;;;5993857;23;19929;-84
2021/12/16 06:47:28;;;;;;;;;;;2.10;99.90;;;;;;6014122;23;19936;-84
2021/12/16 06:49:56;;;;;;;;;;;2.10;99.90;;;;;;5991140;23;19972;-85
2021/12/16 06:52:31;;;;;;;;;;;2.10;99.90;;;;;;6037867;23;19922;-84
2021/12/16 06:55:10;;;;;;;;;;;2.10;99.90;;;;;;6014588;23;19936;-84
2021/12/16 06:57:44;;;;;;;;;;;2.20;99.90;;;;;;6015080;23;19929;-84
2021/12/16 07:00:19;;;;;;;;;;;2.20;99.90;;;;;;6015806;23;19954;-84
2021/12/16 07:03:00;;;;;;;;;;;2.20;99.90;;;;;;6070531;23;19926;-84
2021/12/16 07:05:30;;;;;;;;;;;2.20;99.90;;;;;;6074461;23;19972;-84
2021/12/16 07:07:58;;;;;;;;;;;2.30;99.90;;;;;;6040726;23;20265;-84
2021/12/16 07:10:26;;;;;;;;;;;2.30;99.90;;;;;;6072219;23;19921;-84
2021/12/16 07:12:55;;;;;;;;;;;2.30;99.90;;;;;;6047852;23;19926;-84
2021/12/16 07:15:26;;;;;;;;;;;2.30;99.90;;;;;;6037929;23;19928;-84
2021/12/16 07:17:57;;;;;;;;;;;2.40;99.90;;;;;;6048560;23;20600;-85
2021/12/16 07:20:27;;;;;;;;;;;2.40;99.90;;;;;;6014342;23;19925;-85
2021/12/16 07:22:58;;;;;;;;;;;2.40;99.90;;;;;;6037686;23;19929;-83
2021/12/16 07:25:26;;;;;;;;;;;2.40;99.90;;;;;;6048824;23;19926;-84
2021/12/16 07:27:54;;;;;;;;;;;2.40;99.90;;;;;;6041584;23;19928;-85
2021/12/16 07:30:23;;;;;;;;;;;2.40;99.90;;;;;;5993203;23;19933;-84
2021/12/16 07:32:51;;;;;;;;;;;2.40;99.90;;;;;;6050521;23;19928;-84
2021/12/16 07:35:21;;;;;;;;;;;2.40;99.90;;;;;;6070565;23;20333;-83
2021/12/16 07:37:49;;;;;;;;;;;2.40;99.90;;;;;;6050497;23;20095;-85
2021/12/16 07:40:18;;;;;;;;;;;2.40;99.90;;;;;;6016455;23;19926;-91
2021/12/16 07:43:00;;;;;;;;;;;2.50;99.90;;;;;;6016470;23;19934;-91
2021/12/16 07:45:27;;;;;;;;;;;2.50;99.90;;;;;;5994603;23;19922;-89
2021/12/16 07:47:55;;;;;;;;;;;2.50;99.90;;;;;;6066729;23;19972;-85
2021/12/16 07:50:23;;;;;;;;;;;2.50;99.90;;;;;;6039437;23;19931;-85
2021/12/16 07:52:56;;;;;;;;;;;2.50;99.90;;;;;;5988275;23;20416;-85
2021/12/16 07:55:28;;;;;;;;;;;2.50;99.90;;;;;;6011611;23;19933;-86
2021/12/16 07:57:56;;;;;;;;;;;2.60;99.90;;;;;;5988626;23;19933;-86
2021/12/16 08:00:26;;;;;;;;;;;2.60;99.90;;;;;;5987885;23;19926;-86
2021/12/16 08:02:54;;;;;;;;;;;2.70;99.90;;;;;;6011274;23;19921;-86
2021/12/16 08:05:24;;;;;;;;;;;2.70;99.90;;;;;;5988710;23;19926;-86
2021/12/16 08:07:52;;;;;;;;;;;2.70;99.90;;;;;;5992802;23;19929;-93
2021/12/16 08:14:16;;;;;;;;;;;2.80;99.90;;;;;;5993054;23;19910;-92
2021/12/16 08:16:44;;;;;;;;;;;2.90;99.90;;;;;;6016574;23;19922;-92
2021/12/16 08:19:14;;;;;;;;;;;3.00;99.90;;;;;;6019967;23;19926;-92
2021/12/16 08:21:43;;;;;;;;;;;3.00;99.90;;;;;;6015784;23;19926;-93
2021/12/16 08:24:16;;;;;;;;;;;3.10;99.90;;;;;;6014343;23;19933;-92
2021/12/16 08:26:45;;;;;;;;;;;3.00;99.90;;;;;;5980962;23;19929;-92
2021/12/16 08:29:14;;;;;;;;;;;3.00;99.90;;;;;;6025484;23;19922;-93
2021/12/16 08:31:43;;;;;;;;;;;2.90;99.90;;;;;;5991540;23;20246;-92
2021/12/16 08:34:11;;;;;;;;;;;2.90;99.90;;;;;;6049776;23;19922;-92
2021/12/16 08:36:40;;;;;;;;;;;3.00;99.90;;;;;;5992513;23;19933;-91
2021/12/16 08:39:27;;;;;;;;;;;3.10;99.90;;;;;;5990951;23;19922;-92
2021/12/16 08:41:58;;;;;;;;;;;3.10;99.90;;;;;;6015099;23;19933;-92
2021/12/16 08:44:28;;;;;;;;;;;3.20;99.90;;;;;;5991694;23;19926;-92
2021/12/16 08:47:01;;;;;;;;;;;3.20;99.90;;;;;;5990684;23;19929;-92
2021/12/16 08:49:30;;;;;;;;;;;3.20;99.90;;;;;;5991452;23;19926;-92
2021/12/16 08:51:59;;;;;;;;;;;3.10;99.90;;;;;;5999122;23;19921;-92
2021/12/16 08:54:29;;;;;;;;;;;3.20;99.90;;;;;;5995512;23;19929;-92
2021/12/16 08:57:01;;;;;;;;;;;3.10;99.90;;;;;;6030357;23;19921;-91
2021/12/16 08:59:29;;;;;;;;;;;3.10;99.90;;;;;;6018965;23;19925;-92
2021/12/16 09:01:58;;;;;;;;;;;3.20;99.90;;;;;;5996246;23;19972;-92
2021/12/16 09:04:27;;;;;;;;;;;3.20;99.90;;;;;;6019910;23;20342;-92
2021/12/16 09:06:58;;;;;;;;;;;3.20;99.90;;;;;;6019403;23;19928;-91
2021/12/16 09:09:31;;;;;;;;;;;3.30;99.90;;;;;;5995993;23;19929;-92
2021/12/16 09:12:26;;;;;;;;;;;3.30;99.90;;;;;;6016112;23;19928;-93
2021/12/16 09:14:54;;;;;;;;;;;3.30;99.90;;;;;;6073471;23;20210;-92
2021/12/16 09:17:22;;;;;;;;;;;3.30;99.90;;;;;;6017061;23;20341;-85
2021/12/16 09:19:51;;;;;;;;;;;3.30;99.90;;;;;;6039151;23;20391;-85
2021/12/16 09:22:19;;;;;;;;;;;3.30;99.90;;;;;;6015298;23;19926;-85
2021/12/16 09:24:49;;;;;;;;;;;3.30;99.90;;;;;;6049349;23;19929;-85
2021/12/16 09:27:17;;;;;;;;;;;3.30;99.90;;;;;;6068958;23;19926;-85
2021/12/16 09:29:46;;;;;;;;;;;3.30;99.90;;;;;;6040073;23;19980;-85
2021/12/16 09:32:15;;;;;;;;;;;3.30;99.90;;;;;;6066509;23;19933;-90
2021/12/16 09:34:44;;;;;;;;;;;3.30;99.90;;;;;;6047933;23;20258;-91
2021/12/16 09:37:12;;;;;;;;;;;3.30;99.90;;;;;;5992707;23;20397;-92
2021/12/16 09:39:44;;;;;;;;;;;3.30;99.90;;;;;;6039997;23;19945;-92
2021/12/16 09:42:12;;;;;;;;;;;3.40;99.90;;;;;;5991927;23;19925;-91
2021/12/16 09:44:40;;;;;;;;;;;3.50;99.90;;;;;;6016825;23;19932;-90
2021/12/16 09:47:12;;;;;;;;;;;3.60;99.90;;;;;;6015627;23;19932;-91
2021/12/16 09:49:40;;;;;;;;;;;3.70;99.90;;;;;;6048879;23;19922;-84
2021/12/16 09:52:10;;;;;;;;;;;3.80;99.90;;;;;;6063680;23;19922;-89
2021/12/16 09:54:42;;;;;;;;;;;3.90;99.90;;;;;;6015260;23;19999;-84
2021/12/16 09:57:11;;;;;;;;;;;3.90;99.90;;;;;;6048985;23;19929;-83
2021/12/16 09:59:39;;;;;;;;;;;3.90;99.90;;;;;;6042798;23;19921;-83
2021/12/16 10:02:09;;;;;;;;;;;4.10;99.90;;;;;;6014471;23;19922;-88
2021/12/16 10:04:37;;;;;;;;;;;4.10;99.90;;;;;;6049915;23;19926;-88
2021/12/16 10:07:10;;;;;;;;;;;4.20;99.90;;;;;;6014828;23;19926;-84
2021/12/16 10:09:40;;;;;;;;;;;4.10;99.90;;;;;;6074910;23;19921;-86
2021/12/16 10:12:13;;;;;;;;;;;4.10;99.90;;;;;;6039401;23;19922;-84
2021/12/16 10:15:03;;;;;;;;;;;4.10;99.90;;;;;;6038186;23;19925;-90
2021/12/16 10:17:42;;;;;;;;;;;4.00;99.90;;;;;;6049664;23;19976;-90
2021/12/16 10:20:14;;;;;;;;;;;4.10;99.90;;;;;;6023462;23;19933;-90
2021/12/16 10:22:42;;;;;;;;;;;4.10;99.90;;;;;;6010670;23;19922;-89
2021/12/16 10:25:16;;;;;;;;;;;4.10;99.90;;;;;;6000102;23;19926;-87
2021/12/16 10:28:10;;;;;;;;;;;4.30;99.90;;;;;;6010793;23;19922;-85
2021/12/16 10:30:39;;;;;;;;;;;4.30;99.90;;;;;;6013860;23;19932;-89
2021/12/16 10:33:19;;;;;;;;;;;4.10;99.90;;;;;;6016101;23;19925;-89
2021/12/16 10:36:22;;;;;;;;;;;4.00;99.90;;;;;;6042319;23;19930;-88
2021/12/16 10:39:22;;;;;;;;;;;4.00;99.90;;;;;;6026845;23;19948;-91
2021/12/16 10:41:55;;;;;;;;;;;4.00;99.90;;;;;;5996912;23;19922;-93
2021/12/16 10:44:27;;;;;;;;;;;4.10;99.90;;;;;;5994604;23;19933;-91
2021/12/16 10:47:03;;;;;;;;;;;4.10;99.90;;;;;;6014280;23;20330;-88
2021/12/16 10:49:31;;;;;;;;;;;4.20;99.90;;;;;;6016218;23;19929;-88
2021/12/16 10:52:06;;;;;;;;;;;4.20;99.90;;;;;;6019031;23;19929;-88
2021/12/16 10:54:37;;;;;;;;;;;4.00;99.90;;;;;;5986192;23;19926;-88
2021/12/16 10:57:10;;;;;;;;;;;4.00;99.90;;;;;;6044626;23;19950;-87
2021/12/16 10:59:44;;;;;;;;;;;4.10;99.90;;;;;;5987340;23;19933;-88
2021/12/16 11:02:11;;;;;;;;;;;4.10;99.90;;;;;;6043859;23;19930;-85
2021/12/16 11:05:00;;;;;;;;;;;4.10;99.90;;;;;;6012148;23;19981;-84
2021/12/16 11:07:41;;;;;;;;;;;4.10;99.90;;;;;;6040940;23;19926;-85
2021/12/16 11:10:13;;;;;;;;;;;4.20;99.90;;;;;;6046841;23;19925;-88
2021/12/16 11:12:41;;;;;;;;;;;4.20;99.90;;;;;;5965314;23;19930;-88
2021/12/16 11:15:08;;;;;;;;;;;4.20;99.90;;;;;;6035372;23;19926;-86
2021/12/16 11:17:41;;;;;;;;;;;4.20;99.90;;;;;;6021961;23;19926;-86
2021/12/16 11:20:12;;;;;;;;;;;4.20;99.90;;;;;;5988358;23;19921;-86
2021/12/16 11:22:45;;;;;;;;;;;4.10;99.90;;;;;;5988098;23;19926;-85
2021/12/16 11:25:25;;;;;;;;;;;4.30;99.90;;;;;;6022137;23;19978;-87
2021/12/16 11:27:55;;;;;;;;;;;4.30;99.90;;;;;;6011343;23;19972;-88
2021/12/16 11:30:32;;;;;;;;;;;4.40;99.90;;;;;;6011517;23;20257;-88
2021/12/16 11:33:07;;;;;;;;;;;4.30;99.90;;;;;;6012662;23;19936;-89
2021/12/16 11:35:46;;;;;;;;;;;4.40;99.90;;;;;;5965731;23;20262;-84
2021/12/16 11:38:25;;;;;;;;;;;4.40;99.90;;;;;;6044867;23;19926;-84
2021/12/16 11:40:55;;;;;;;;;;;4.50;99.90;;;;;;6021463;23;19933;-84
2021/12/16 11:43:38;;;;;;;;;;;4.50;99.90;;;;;;5987774;23;19937;-83
2021/12/16 11:46:11;;;;;;;;;;;4.40;99.90;;;;;;5988245;23;19922;-83
2021/12/16 11:48:40;;;;;;;;;;;4.50;99.90;;;;;;6022511;23;20342;-83
2021/12/16 11:51:17;;;;;;;;;;;4.40;99.90;;;;;;5987534;23;19942;-88
2021/12/16 11:53:47;;;;;;;;;;;4.40;99.90;;;;;;6011710;23;19933;-87
2021/12/16 11:56:15;;;;;;;;;;;4.50;99.90;;;;;;5964966;23;19926;-84
2021/12/16 11:58:44;;;;;;;;;;;4.50;99.90;;;;;;6043427;23;19934;-83
2021/12/16 12:01:14;;;;;;;;;;;4.50;99.90;;;;;;5987704;23;19930;-84
2021/12/16 12:03:43;;;;;;;;;;;4.50;99.90;;;;;;5988517;23;19933;-84
2021/12/16 12:06:24;;;;;;;;;;;4.50;99.90;;;;;;6011981;23;19930;-84
2021/12/16 12:08:54;;;;;;;;;;;4.60;99.90;;;;;;5988278;23;19930;-84
2021/12/16 12:11:27;;;;;;;;;;;4.50;99.90;;;;;;5987607;23;19933;-83
2021/12/16 12:14:04;;;;;;;;;;;4.40;99.90;;;;;;6045912;23;19933;-83
2021/12/16 12:16:34;;;;;;;;;;;4.50;99.90;;;;;;6036414;23;20350;-83
2021/12/16 12:19:10;;;;;;;;;;;4.40;99.90;;;;;;6018062;23;20245;-83
2021/12/16 12:21:44;;;;;;;;;;;4.40;99.90;;;;;;6021881;23;19926;-83
2021/12/16 12:24:19;;;;;;;;;;;4.30;99.90;;;;;;6011145;23;19926;-87
2021/12/16 12:26:53;;;;;;;;;;;4.30;99.90;;;;;;5987625;23;19926;-87
2021/12/16 12:29:23;;;;;;;;;;;4.30;99.90;;;;;;6021374;23;20250;-87
2021/12/16 12:31:57;;;;;;;;;;;4.30;99.90;;;;;;5987461;23;19921;-87
2021/12/16 12:34:25;;;;;;;;;;;4.40;99.90;;;;;;5987916;23;19926;-83
2021/12/16 12:36:54;;;;;;;;;;;4.40;99.90;;;;;;6021622;23;19921;-83
2021/12/16 12:39:24;;;;;;;;;;;4.40;99.90;;;;;;6035022;23;19936;-83
2021/12/16 12:41:52;;;;;;;;;;;4.40;99.90;;;;;;5988596;23;20238;-83
2021/12/16 12:44:20;;;;;;;;;;;4.40;99.90;;;;;;5987405;23;19929;-83
2021/12/16 12:46:49;;;;;;;;;;;4.40;99.90;;;;;;6043144;23;19922;-83
2021/12/16 12:49:23;;;;;;;;;;;4.50;99.90;;;;;;6021624;23;19926;-83
2021/12/16 12:52:02;;;;;;;;;;;4.50;99.90;;;;;;6023465;23;19922;-83
2021/12/16 12:54:30;;;;;;;;;;;4.50;99.90;;;;;;6034443;23;20293;-83
2021/12/16 12:57:01;;;;;;;;;;;4.50;99.90;;;;;;5987540;23;19926;-83
2021/12/16 12:59:35;;;;;;;;;;;4.40;99.90;;;;;;6011187;23;19933;-83
2021/12/16 13:02:16;;;;;;;;;;;4.50;99.90;;;;;;6020913;23;20254;-83
2021/12/16 13:05:10;;;;;;;;;;;4.50;99.90;;;;;;5997173;23;19926;-83
2021/12/16 13:07:53;;;;;;;;;;;4.50;99.90;;;;;;6008735;23;20249;-83
2021/12/16 13:10:27;;;;;;;;;;;4.50;99.90;;;;;;6044578;23;19932;-87
2021/12/16 13:13:16;;;;;;;;;;;4.50;99.90;;;;;;5987396;23;20401;-87
2021/12/16 13:23:59;;;;;;;;;;;4.40;99.90;;;;;;6037075;23;19929;-87
2021/12/16 13:26:39;;;;;;;;;;;4.50;99.90;;;;;;6041553;23;19929;-87
2021/12/16 13:29:28;;;;;;;;;;;4.50;99.90;;;;;;6042319;23;19921;-88
2021/12/16 13:32:14;;;;;;;;;;;4.50;99.90;;;;;;6035205;23;20262;-87
2021/12/16 13:34:53;;;;;;;;;;;4.50;99.90;;;;;;6015861;23;19930;-88
2021/12/16 13:37:25;;;;;;;;;;;4.50;99.90;;;;;;6032186;23;20350;-87
2021/12/16 13:39:55;;;;;;;;;;;4.50;99.90;;;;;;5985407;23;20229;-88
2021/12/16 13:42:23;;;;;;;;;;;4.40;99.90;;;;;;6015692;23;20425;-88
2021/12/16 13:45:06;;;;;;;;;;;4.40;99.90;;;;;;6044565;23;20390;-87
2021/12/16 14:05:56;;;;;;;;;;;4.40;99.90;;;;;;5983146;23;19922;-87
2021/12/16 14:08:30;;;;;;;;;;;4.40;99.90;;;;;;5985839;23;20214;-86
2021/12/16 14:11:02;;;;;;;;;;;4.40;99.90;;;;;;6008016;23;19925;-86
2021/12/16 14:38:53;;;;;;;;;;;4.30;99.90;;;;;;6036412;23;19925;-87
2021/12/16 14:46:47;;;;;;;;;;;4.10;99.90;;;;;;6012519;23;19938;-89
2021/12/16 14:49:26;;;;;;;;;;;4.10;99.90;;;;;;6012578;23;19929;-89
2021/12/16 14:51:57;;;;;;;;;;;4.00;99.90;;;;;;6004779;23;19925;-87
2021/12/16 14:54:26;;;;;;;;;;;4.00;99.90;;;;;;6074686;23;19928;-87
2021/12/16 14:57:00;;;;;;;;;;;4.00;99.90;;;;;;6076026;23;20348;-86
2021/12/16 14:59:30;;;;;;;;;;;3.90;99.90;;;;;;6016720;23;19928;-87
2021/12/16 15:02:00;;;;;;;;;;;3.80;99.90;;;;;;6073854;23;20571;-81
2021/12/16 15:04:30;;;;;;;;;;;3.70;99.90;;;;;;6065821;23;19926;-81
2021/12/16 15:07:03;;;;;;;;;;;3.60;99.90;;;;;;6047006;23;19922;-81
2021/12/16 15:09:35;;;;;;;;;;;3.60;99.90;;;;;;6045093;23;19932;-82
2021/12/16 15:12:10;;;;;;;;;;;3.60;99.90;;;;;;6066829;23;19926;-81
2021/12/16 15:40:06;;;;;;;;;;;3.10;99.90;;;;;;6039950;23;19958;-81
2021/12/16 15:42:52;;;;;;;;;;;3.10;99.90;;;;;;6015784;23;19932;-81
2021/12/16 15:45:31;;;;;;;;;;;3.10;99.90;;;;;;6041390;23;19926;-87
2021/12/16 15:48:02;;;;;;;;;;;3.10;99.90;;;;;;6042300;23;20231;-81
2021/12/16 15:50:45;;;;;;;;;;;3.00;99.90;;;;;;5991732;23;19921;-81
2021/12/16 15:53:20;;;;;;;;;;;3.00;99.90;;;;;;6021452;23;19925;-82
2021/12/16 15:55:51;;;;;;;;;;;3.00;99.90;;;;;;6039774;23;20233;-87
2021/12/16 15:58:21;;;;;;;;;;;2.90;99.90;;;;;;6020059;23;19929;-86
2021/12/16 16:00:52;;;;;;;;;;;2.90;99.90;;;;;;6047001;23;20334;-87
2021/12/16 16:03:20;;;;;;;;;;;2.80;99.90;;;;;;5987807;23;20513;-81
2021/12/16 16:05:49;;;;;;;;;;;2.90;99.90;;;;;;6022121;23;19922;-81
2021/12/16 16:08:19;;;;;;;;;;;2.80;99.90;;;;;;5987529;23;20250;-82
2021/12/16 16:11:04;;;;;;;;;;;2.80;99.90;;;;;;6008689;23;20227;-82
2021/12/16 16:13:36;;;;;;;;;;;2.80;99.90;;;;;;6044692;23;19922;-81
2021/12/16 16:16:06;;;;;;;;;;;2.80;99.90;;;;;;6013261;23;19937;-83
2021/12/16 16:18:40;;;;;;;;;;;2.90;99.90;;;;;;6044403;23;19921;-86
2021/12/16 16:21:16;;;;;;;;;;;2.90;99.90;;;;;;6045186;23;19933;-85
2021/12/16 16:23:45;;;;;;;;;;;2.80;99.90;;;;;;5964114;23;19933;-86
2021/12/16 16:26:14;;;;;;;;;;;2.90;99.90;;;;;;6019454;23;19925;-86
2021/12/16 16:28:43;;;;;;;;;;;2.80;99.90;;;;;;6020430;23;19926;-85
2021/12/16 16:31:16;;;;;;;;;;;2.80;99.90;;;;;;6015707;23;19922;-85
2021/12/16 16:33:44;;;;;;;;;;;2.80;99.90;;;;;;6046477;23;19933;-85
2021/12/16 16:36:13;;;;;;;;;;;2.90;99.90;;;;;;5987480;23;19933;-87
2021/12/16 16:38:43;;;;;;;;;;;2.80;99.90;;;;;;6043753;23;19926;-83
2021/12/16 16:41:12;;;;;;;;;;;2.90;99.90;;;;;;6046518;23;19921;-86
2021/12/16 16:43:48;;;;;;;;;;;2.90;99.90;;;;;;6010518;23;19948;-83
2021/12/16 16:46:18;;;;;;;;;;;2.90;99.90;;;;;;6019921;23;19933;-83
2021/12/16 16:49:03;;;;;;;;;;;2.90;99.90;;;;;;5986979;23;19926;-84
2021/12/16 16:51:42;;;;;;;;;;;2.90;99.90;;;;;;5986465;23;19926;-84
2021/12/16 16:54:15;;;;;;;;;;;3.00;99.90;;;;;;6045145;23;19933;-84
2021/12/16 16:56:43;;;;;;;;;;;2.90;99.90;;;;;;5988136;23;19925;-84
2021/12/16 16:59:13;;;;;;;;;;;2.90;99.90;;;;;;6039368;23;20619;-84
2021/12/16 17:01:42;;;;;;;;;;;2.90;99.90;;;;;;6046019;23;19948;-84
2021/12/16 17:04:11;;;;;;;;;;;2.90;99.90;;;;;;5987805;23;19929;-84
2021/12/16 17:06:44;;;;;;;;;;;2.90;99.90;;;;;;6043476;23;19933;-84
2021/12/16 17:09:12;;;;;;;;;;;2.80;99.90;;;;;;6045837;23;19926;-86
2021/12/16 17:11:45;;;;;;;;;;;2.70;99.90;;;;;;6014507;23;19926;-85
2021/12/16 17:14:17;;;;;;;;;;;2.70;99.90;;;;;;6019595;23;19922;-85
2021/12/16 17:19:41;;;;;;;;;;;2.70;99.90;;;;;;6039499;23;19922;-79
2021/12/16 17:22:11;;;;;;;;;;;2.70;99.90;;;;;;6044769;23;19929;-80
2021/12/16 17:24:42;;;;;;;;;;;2.70;99.90;;;;;;6046199;23;19926;-79
2021/12/16 17:27:10;;;;;;;;;;;2.70;99.90;;;;;;6040616;23;20253;-80
2021/12/16 17:29:50;;;;;;;;;;;2.70;99.90;;;;;;6011159;23;20249;-80
2021/12/16 17:32:26;;;;;;;;;;;2.70;99.90;;;;;;6036286;23;19922;-85
2021/12/16 17:34:56;;;;;;;;;;;2.70;99.90;;;;;;6040695;23;19933;-86
2021/12/16 17:37:26;;;;;;;;;;;2.70;99.90;;;;;;6010123;23;19933;-80
2021/12/16 17:39:56;;;;;;;;;;;2.70;99.90;;;;;;6037919;23;20245;-80
2021/12/16 17:42:30;;;;;;;;;;;2.70;99.90;;;;;;6043605;23;19932;-86
2021/12/16 17:44:59;;;;;;;;;;;2.50;99.90;;;;;;6044382;23;19926;-85
2021/12/16 17:47:29;;;;;;;;;;;2.30;99.90;;;;;;5991193;23;19926;-85
2021/12/16 17:49:58;;;;;;;;;;;2.30;99.90;;;;;;6020540;23;19929;-85
2021/12/16 17:52:28;;;;;;;;;;;2.30;99.90;;;;;;6059509;23;19928;-86
2021/12/16 17:54:59;;;;;;;;;;;2.30;99.90;;;;;;6070870;23;19925;-85
2021/12/16 17:57:53;;;;;;;;;;;2.30;99.90;;;;;;6062706;23;19926;-85
2021/12/16 18:00:23;;;;;;;;;;;2.30;99.90;;;;;;6063191;23;19921;-80
2021/12/16 18:02:52;;;;;;;;;;;2.20;99.90;;;;;;6062777;23;20325;-80
2021/12/16 18:05:21;;;;;;;;;;;2.10;99.90;;;;;;6073567;23;20235;-85
2021/12/16 18:07:49;;;;;;;;;;;2.00;99.90;;;;;;6066632;23;19925;-85
2021/12/16 18:10:17;;;;;;;;;;;2.00;99.90;;;;;;6038489;23;20325;-84
2021/12/16 18:12:50;;;;;;;;;;;2.10;99.90;;;;;;6073810;23;19926;-87
2021/12/16 18:15:24;;;;;;;;;;;2.20;99.90;;;;;;6014871;23;19925;-87
2021/12/16 18:17:55;;;;;;;;;;;2.20;99.90;;;;;;6074449;23;20518;-87
2021/12/16 18:20:29;;;;;;;;;;;2.20;99.90;;;;;;6038671;23;19933;-89
2021/12/16 18:22:59;;;;;;;;;;;2.20;99.90;;;;;;6062171;23;19929;-86
2021/12/16 18:25:29;;;;;;;;;;;2.10;99.90;;;;;;6073464;23;19921;-80
2021/12/16 18:28:02;;;;;;;;;;;2.20;99.90;;;;;;6040560;23;19937;-81
2021/12/16 18:30:32;;;;;;;;;;;2.20;99.90;;;;;;6071635;23;20401;-81
2021/12/16 18:33:03;;;;;;;;;;;2.30;99.90;;;;;;6073625;23;19925;-80
2021/12/16 18:36:04;;;;;;;;;;;2.40;99.90;;;;;;6014384;23;20230;-88
2021/12/16 18:38:38;;;;;;;;;;;2.40;99.90;;;;;;6041937;23;19936;-86
2021/12/16 18:41:19;;;;;;;;;;;2.40;99.90;;;;;;6072152;23;20227;-87
2021/12/16 18:57:28;;;;;;;;;;;2.50;99.90;;;;;;6074902;23;19914;-86
2021/12/16 19:05:17;;;;;;;;;;;2.40;99.90;;;;;;6046974;23;20290;-84
2021/12/16 19:07:59;;;;;;;;;;;2.10;99.90;;;;;;6079232;23;19921;-85
2021/12/16 19:10:41;;;;;;;;;;;2.20;99.90;;;;;;6097801;23;19928;-86
2021/12/16 19:13:17;;;;;;;;;;;2.30;99.90;;;;;;6095992;23;19924;-85
2021/12/16 19:15:47;;;;;;;;;;;2.20;99.90;;;;;;6120611;23;19921;-88
2021/12/16 19:18:16;;;;;;;;;;;2.00;99.90;;;;;;6096546;23;20445;-87